• location
  • image
mod_vvisit_countermod_vvisit_countermod_vvisit_countermod_vvisit_countermod_vvisit_countermod_vvisit_counter
mod_vvisit_counterToday573
mod_vvisit_counterYesterday711
mod_vvisit_counterThis week3701
mod_vvisit_counterLast week3755
mod_vvisit_counterThis month16249
mod_vvisit_counterLast month20789
mod_vvisit_counterAll days702036

We have: 68 guests online
Your IP: 54.161.96.239
 , 
Today: Jul 22, 2017
Airport / Company

Company

Municipal company Siauliu oro uostas.

In November 2003, under the decision of Siauliai City Municipality Council, municipal company Siauliu Oro Uostas was set up. Under the resolution of the Lithuanian Government, the company was granted the right to serve civil transport in Siauliai Military Aerodrome.

The company is a limited liability public entity.

The main objective  – to provide public passenger and cargo air transportation services.

The company’s main activities include airport operations and air transport services.

Currently, 21 employees work for the company.

Organisation chart of the company is given below:

 

Today

Saturday, 22 July 2017

Weather Forecast

Siauliai °C
   

Aviation Weather Forecast

[source: ADDS]
METAR
EYSA 220820Z 01008KT 320V040 9999 FEW031 19/11 Q1019 BLU NOSIG =
TAF
TAF EYSA 220800Z 2209/2218 01012KT 9999 SCT040 =
SR / SS: 02:20 / 18:48 UTC (EYSA 2017-07-22)

Search

Who's Online

We have 68 guests online

tic logo en